Bunker, Washington
Current Conditions -  °F | °C
As of 4:15 AM on Sunday 23 Nov 2014 (Local Time) from KCLS Reporting Station
NA  
Wind Chill: 43°   Ceiling: NA
Heat Index: 46°   Visibility: 10mi
Dew Point: 45°   Wind: 7mph
Humidity: 93%   Direction: 170°S
Pressure: 30.2"   Gusts: NA
Location:  46.6561°N, 122.993°W
Report Text: KCLS 231215Z AUTO 17006KT 10SM 08/07 A3020 RMK AO2
Loading
Personal Weather Stations






























Interactive Weather Map New forecast layout! Learn more

10-Day Weather Forecast

Advertisements
Track Severe Weather on mobile